Time;durP1;ratioP1;P1;durP2;ratioP2;P2;SDS_P1;SDS_P2;PMS_P1;PMS_P2;Temp;Humidity;BMP_temperature;BMP_pressure;BME280_temperature;BME280_humidity;BME280_pressure;Samples;Min_cycle;Max_cycle;Signal;HPM_P1;HPM_P2
2024/01/30 00:01:58;;;;;;;6.65;5.97;;;;;;;9.26;86.87;102364.81;3545129;40;20128;-68
2024/01/30 00:04:24;;;;;;;6.63;5.88;;;;;;;9.28;86.04;102366.53;3542050;40;20076;-68
2024/01/30 00:06:52;;;;;;;8.65;6.28;;;;;;;9.25;85.91;102368.44;3541139;40;20062;-68
2024/01/30 00:09:19;;;;;;;9.98;6.43;;;;;;;9.27;86.84;102361.22;3542810;40;20287;-68
2024/01/30 00:11:45;;;;;;;7.68;6.15;;;;;;;9.29;86.50;102373.66;3540971;40;20046;-67
2024/01/30 00:14:11;;;;;;;6.68;5.75;;;;;;;9.29;86.43;102367.38;3540712;40;20061;-68
2024/01/30 00:16:36;;;;;;;8.75;6.25;;;;;;;9.29;85.83;102364.72;3544009;40;20425;-68
2024/01/30 00:19:02;;;;;;;8.02;6.13;;;;;;;9.27;86.21;102362.09;3543351;40;20050;-67
2024/01/30 00:21:28;;;;;;;9.15;5.93;;;;;;;9.27;85.56;102366.59;3543538;40;20046;-69
2024/01/30 00:23:53;;;;;;;8.05;5.78;;;;;;;9.24;85.11;102369.34;3538620;40;20054;-68
2024/01/30 00:26:19;;;;;;;8.18;5.90;;;;;;;9.22;85.97;102358.66;3538297;40;20057;-68
2024/01/30 00:28:45;;;;;;;8.65;5.78;;;;;;;9.19;86.17;102364.13;3541518;40;20374;-68
2024/01/30 00:31:13;;;;;;;6.95;5.50;;;;;;;9.12;84.81;102367.06;3546071;40;20046;-68
2024/01/30 00:33:39;;;;;;;7.40;6.13;;;;;;;9.07;85.92;102360.03;3543575;40;20105;-67
2024/01/30 00:36:07;;;;;;;8.50;6.32;;;;;;;9.04;86.00;102360.13;3540083;40;20062;-68
2024/01/30 00:38:33;;;;;;;7.70;6.00;;;;;;;8.90;86.61;102330.16;3539480;40;20387;-68
2024/01/30 00:40:58;;;;;;;9.90;6.07;;;;;;;9.00;87.20;102347.72;3542793;40;20050;-67
2024/01/30 00:43:27;;;;;;;9.70;6.90;;;;;;;9.06;86.87;102352.91;3540672;40;20046;-68
2024/01/30 00:45:53;;;;;;;7.30;5.63;;;;;;;8.88;86.41;102315.94;3542572;40;20088;-67
2024/01/30 00:48:19;;;;;;;10.07;5.75;;;;;;;8.98;85.73;102349.59;3541918;40;20093;-68
2024/01/30 00:50:45;;;;;;;10.80;6.30;;;;;;;9.01;86.50;102348.63;3538911;40;20482;-68
2024/01/30 00:53:11;;;;;;;9.20;6.10;;;;;;;8.99;85.82;102345.97;3543414;40;20049;-68
2024/01/30 00:55:36;;;;;;;8.18;5.55;;;;;;;8.96;85.82;102348.75;3543907;40;20065;-68
2024/01/30 00:58:02;;;;;;;6.93;5.60;;;;;;;8.92;85.82;102338.19;3542830;40;20065;-67
2024/01/30 01:00:28;;;;;;;6.32;5.68;;;;;;;8.91;86.73;102342.66;3542284;40;20065;-67
2024/01/30 01:02:55;;;;;;;7.32;6.40;;;;;;;8.93;86.45;102347.97;3541409;40;20066;-68
2024/01/30 01:05:21;;;;;;;8.23;5.88;;;;;;;8.93;85.96;102348.84;3541449;40;20066;-67
2024/01/30 01:07:48;;;;;;;8.52;5.97;;;;;;;8.93;85.74;102343.47;3542313;40;20093;-67
2024/01/30 01:10:15;;;;;;;7.25;5.85;;;;;;;8.70;85.55;102312.00;3541557;40;20065;-68
2024/01/30 01:12:42;;;;;;;8.05;6.18;;;;;;;8.90;85.59;102346.25;3541338;40;20058;-67
2024/01/30 01:15:09;;;;;;;7.35;5.95;;;;;;;8.91;86.58;102352.50;3544205;40;20094;-68
2024/01/30 01:17:36;;;;;;;10.18;6.15;;;;;;;8.91;87.24;102339.97;3541790;40;20403;-68
2024/01/30 01:20:05;;;;;;;7.63;5.88;;;;;;;8.92;86.19;102344.41;3542087;40;20125;-67
2024/01/30 01:22:31;;;;;;;9.05;6.38;;;;;;;8.96;87.07;102335.34;3542499;40;20053;-68
2024/01/30 01:24:56;;;;;;;7.35;6.05;;;;;;;9.00;86.00;102331.63;3542212;40;20072;-67
2024/01/30 01:27:22;;;;;;;6.68;5.50;;;;;;;8.89;85.97;102312.31;3542472;40;20066;-68
2024/01/30 01:29:48;;;;;;;8.23;5.90;;;;;;;9.02;85.24;102332.47;3541725;40;20131;-68
2024/01/30 01:32:13;;;;;;;7.50;6.10;;;;;;;9.02;85.14;102336.97;3543841;40;20058;-67
2024/01/30 01:34:39;;;;;;;5.90;5.30;;;;;;;9.02;85.12;102334.28;3541866;40;20400;-68
2024/01/30 01:37:05;;;;;;;7.78;5.90;;;;;;;9.03;85.22;102327.97;3540778;40;20051;-67
2024/01/30 01:39:31;;;;;;;8.63;5.60;;;;;;;9.04;86.01;102332.44;3542849;40;20054;-67
2024/01/30 01:41:56;;;;;;;8.98;6.25;;;;;;;9.04;85.14;102322.56;3542353;40;20066;-68
2024/01/30 01:44:22;;;;;;;7.50;6.03;;;;;;;9.05;85.36;102324.31;3542812;40;20050;-68
2024/01/30 01:46:48;;;;;;;7.53;5.65;;;;;;;9.04;85.71;102314.53;3540940;40;20156;-67
2024/01/30 01:49:14;;;;;;;8.75;5.80;;;;;;;9.13;85.97;102320.50;3541796;40;20050;-67
2024/01/30 01:51:44;;;;;;;7.43;5.43;;;;;;;9.12;85.51;102313.41;3544105;40;20052;-67
2024/01/30 01:54:11;;;;;;;8.32;6.13;;;;;;;9.09;85.26;102297.41;3542575;40;20332;-67
2024/01/30 01:56:38;;;;;;;6.28;5.40;;;;;;;9.18;84.94;102308.72;3542166;40;20537;-67
2024/01/30 01:59:08;;;;;;;7.68;5.80;;;;;;;9.17;84.86;102300.72;3540584;40;20410;-67
2024/01/30 02:01:36;;;;;;;8.77;5.63;;;;;;;9.24;84.93;102310.34;3541009;40;20109;-67
2024/01/30 02:04:02;;;;;;;7.20;6.45;;;;;;;9.26;84.47;102309.34;3529873;40;20058;-67
2024/01/30 02:06:28;;;;;;;9.50;7.15;;;;;;;9.28;84.68;102303.94;3540226;40;20066;-67
2024/01/30 02:08:54;;;;;;;7.75;5.70;;;;;;;9.30;84.06;102304.78;3540851;40;20058;-67
2024/01/30 02:11:22;;;;;;;9.70;5.75;;;;;;;9.31;84.51;102298.47;3544415;40;20060;-67
2024/01/30 02:13:48;;;;;;;8.70;6.03;;;;;;;9.31;84.44;102303.81;3539745;40;20391;-67
2024/01/30 02:16:14;;;;;;;6.82;5.72;;;;;;;9.28;84.29;102301.25;3539799;40;20064;-67
2024/01/30 02:18:45;;;;;;;8.18;5.40;;;;;;;9.32;83.20;102310.06;3540906;40;20334;-67
2024/01/30 02:21:12;;;;;;;7.35;5.65;;;;;;;9.29;83.66;102303.91;3540300;40;20098;-67
2024/01/30 02:23:40;;;;;;;8.68;5.70;;;;;;;9.27;83.40;102299.50;3543148;40;20060;-67
2024/01/30 02:26:06;;;;;;;8.80;6.05;;;;;;;9.28;83.55;102304.81;3543074;40;20062;-67
2024/01/30 02:28:31;;;;;;;6.30;5.30;;;;;;;9.27;83.52;102307.56;3545338;40;20050;-67
2024/01/30 02:30:57;;;;;;;7.70;5.60;;;;;;;9.25;83.59;102304.91;3542628;40;20061;-67
2024/01/30 02:33:23;;;;;;;6.35;5.35;;;;;;;9.26;84.18;102301.31;3544138;40;20061;-67
2024/01/30 02:35:48;;;;;;;9.23;5.55;;;;;;;9.32;83.83;102300.22;3542832;40;20088;-67
2024/01/30 02:38:15;;;;;;;6.57;5.40;;;;;;;9.34;83.41;102298.38;3544911;40;20168;-67
2024/01/30 02:40:41;;;;;;;6.72;5.65;;;;;;;9.37;83.41;102297.38;3543318;40;20054;-67
2024/01/30 02:43:06;;;;;;;7.78;5.78;;;;;;;9.21;83.00;102260.31;3545460;40;20054;-67
2024/01/30 02:45:32;;;;;;;7.00;5.15;;;;;;;9.29;83.32;102278.84;3543882;40;20080;-67
2024/01/30 02:47:58;;;;;;;8.38;5.78;;;;;;;9.26;83.59;102265.53;3544353;40;20073;-67
2024/01/30 02:50:23;;;;;;;7.97;5.80;;;;;;;9.41;83.00;102294.53;3544978;40;20065;-67
2024/01/30 02:52:49;;;;;;;7.97;5.63;;;;;;;9.42;83.49;102293.63;3541329;40;20308;-67
2024/01/30 02:55:17;;;;;;;8.25;5.32;;;;;;;9.42;83.70;102296.31;3548388;40;20061;-67
2024/01/30 02:57:43;;;;;;;6.40;5.47;;;;;;;9.40;83.37;102281.19;3534827;40;20065;-67
2024/01/30 03:00:10;;;;;;;8.88;5.13;;;;;;;9.48;82.49;102285.38;3545982;40;20062;-67
2024/01/30 03:02:36;;;;;;;7.13;5.43;;;;;;;9.44;83.57;102282.81;3544771;40;20098;-67
2024/01/30 03:05:03;;;;;;;8.20;5.43;;;;;;;9.40;82.67;102276.69;3542228;40;20071;-68
2024/01/30 03:07:29;;;;;;;6.78;5.20;;;;;;;9.51;82.73;102296.00;3544818;40;20062;-67
2024/01/30 03:09:55;;;;;;;7.68;5.13;;;;;;;9.51;83.32;102285.28;3543718;40;20417;-67
2024/01/30 03:12:21;;;;;;;6.95;5.10;;;;;;;9.52;83.10;102281.66;3543994;40;20086;-67
2024/01/30 03:14:47;;;;;;;7.53;5.25;;;;;;;9.45;82.59;102264.00;3540389;40;20132;-67
2024/01/30 03:17:13;;;;;;;8.65;5.45;;;;;;;9.36;82.70;102241.97;3541430;40;20062;-67
2024/01/30 03:19:39;;;;;;;6.55;5.20;;;;;;;9.47;82.51;102261.25;3540629;40;20054;-66
2024/01/30 03:22:04;;;;;;;7.88;5.40;;;;;;;9.51;82.23;102274.53;3543288;40;20427;-67
2024/01/30 03:24:30;;;;;;;7.32;5.10;;;;;;;9.44;82.25;102278.34;3547176;40;20062;-68
2024/01/30 03:26:56;;;;;;;7.47;5.40;;;;;;;9.41;82.70;102272.19;3546806;40;20062;-67
2024/01/30 03:29:21;;;;;;;7.72;5.97;;;;;;;9.38;82.73;102273.16;3542405;40;20066;-67
2024/01/30 03:31:47;;;;;;;8.13;5.63;;;;;;;9.35;83.44;102262.53;3541947;40;20050;-66
2024/01/30 03:34:12;;;;;;;8.80;5.55;;;;;;;9.32;82.84;102264.44;3541668;40;20062;-67
2024/01/30 03:36:38;;;;;;;7.00;5.78;;;;;;;9.28;83.06;102266.34;3543318;40;20065;-67
2024/01/30 03:39:04;;;;;;;7.45;5.25;;;;;;;9.25;83.62;102263.78;3543451;40;20054;-67
2024/01/30 03:41:30;;;;;;;5.88;4.93;;;;;;;9.23;83.21;102266.53;3541402;40;20096;-67
2024/01/30 03:43:55;;;;;;;6.93;5.60;;;;;;;9.20;83.97;102263.94;3547615;40;20050;-67
2024/01/30 03:46:21;;;;;;;7.43;5.72;;;;;;;9.13;83.87;102262.38;3543604;40;20083;-67
2024/01/30 03:48:46;;;;;;;7.93;5.60;;;;;;;9.16;84.24;102266.75;3542428;40;20069;-67
2024/01/30 03:51:14;;;;;;;9.65;5.55;;;;;;;9.14;84.27;102266.81;3542906;40;20052;-67
2024/01/30 03:53:45;;;;;;;8.60;5.78;;;;;;;8.99;84.78;102244.06;3546499;40;20379;-67
2024/01/30 03:56:10;;;;;;;8.68;5.50;;;;;;;9.12;84.28;102260.63;3541300;40;20053;-67
2024/01/30 03:58:36;;;;;;;9.43;5.38;;;;;;;8.95;84.94;102247.78;3539556;40;20054;-67
2024/01/30 04:01:02;;;;;;;7.15;5.55;;;;;;;9.00;85.18;102256.53;3543113;40;20131;-67
2024/01/30 04:03:27;;;;;;;7.03;5.43;;;;;;;9.19;85.58;102274.72;3543650;40;20060;-67
2024/01/30 04:05:54;;;;;;;5.88;5.15;;;;;;;9.20;84.53;102271.13;3540888;40;21297;-67
2024/01/30 04:08:20;;;;;;;6.38;5.22;;;;;;;9.14;84.88;102264.16;3542118;40;20085;-67
2024/01/30 04:10:47;;;;;;;7.75;5.35;;;;;;;9.26;84.72;102268.22;3544164;40;20065;-67
2024/01/30 04:13:13;;;;;;;7.68;5.00;;;;;;;9.28;85.17;102269.91;3542273;40;20058;-67
2024/01/30 04:15:39;;;;;;;9.32;5.30;;;;;;;9.29;85.27;102268.09;3542202;40;20386;-67
2024/01/30 04:18:05;;;;;;;6.80;5.18;;;;;;;9.30;85.30;102264.50;3540734;40;20067;-67
2024/01/30 04:20:31;;;;;;;7.13;5.60;;;;;;;9.16;85.22;102234.56;3543357;40;20362;-67
2024/01/30 04:22:57;;;;;;;7.25;5.10;;;;;;;9.39;85.09;102266.03;3544226;40;20058;-67
2024/01/30 04:25:23;;;;;;;7.50;5.32;;;;;;;9.29;85.07;102238.59;3547151;40;20060;-67
2024/01/30 04:27:48;;;;;;;6.43;5.00;;;;;;;9.46;84.45;102260.38;3542359;40;20056;-67
2024/01/30 04:30:14;;;;;;;7.15;5.32;;;;;;;9.41;84.65;102240.84;3544184;40;20073;-67
2024/01/30 04:32:40;;;;;;;9.55;5.68;;;;;;;9.55;84.08;102253.81;3542624;40;20414;-67
2024/01/30 04:35:06;;;;;;;6.43;5.28;;;;;;;9.64;83.95;102263.34;3542720;40;20523;-67
2024/01/30 04:37:32;;;;;;;7.38;5.38;;;;;;;9.65;83.95;102249.00;3542292;40;20064;-67
2024/01/30 04:39:57;;;;;;;7.55;4.90;;;;;;;9.72;83.58;102250.53;3541532;40;20276;-67
2024/01/30 04:42:23;;;;;;;9.90;5.85;;;;;;;9.71;83.46;102238.94;3546099;40;20288;-67
2024/01/30 04:44:49;;;;;;;8.50;5.07;;;;;;;9.78;83.41;102239.59;3543477;40;20088;-67
2024/01/30 04:47:15;;;;;;;6.75;4.88;;;;;;;9.78;83.47;102239.59;3541926;40;20121;-67
2024/01/30 04:49:41;;;;;;;5.72;5.13;;;;;;;9.82;83.57;102235.84;3539344;40;20053;-67
2024/01/30 04:52:08;;;;;;;6.55;5.05;;;;;;;9.86;83.21;102231.22;3542880;40;20141;-67
2024/01/30 04:54:35;;;;;;;6.80;5.18;;;;;;;9.71;83.47;102203.16;3541487;40;20038;-67
2024/01/30 04:57:01;;;;;;;5.40;4.65;;;;;;;9.73;83.18;102201.25;3546421;40;20057;-67
2024/01/30 04:59:27;;;;;;;6.70;4.68;;;;;;;9.92;82.35;102237.25;3546384;40;20053;-67
2024/01/30 05:01:53;;;;;;;7.28;4.95;;;;;;;9.96;82.29;102243.44;3546708;40;20066;-67
2024/01/30 05:04:18;;;;;;;7.95;5.60;;;;;;;9.97;82.46;102239.78;3540441;40;20528;-67
2024/01/30 05:06:44;;;;;;;7.65;4.80;;;;;;;9.98;83.12;102230.78;3546900;40;20084;-67
2024/01/30 05:09:10;;;;;;;7.57;5.03;;;;;;;10.01;82.99;102241.44;3543276;40;20430;-67
2024/01/30 05:11:40;;;;;;;6.00;4.32;;;;;;;9.84;82.52;102212.50;3544732;40;20052;-67
2024/01/30 05:14:08;;;;;;;7.68;4.93;;;;;;;10.01;82.62;102246.78;3545238;40;20394;-67
2024/01/30 05:16:34;;;;;;;9.23;5.13;;;;;;;9.99;82.94;102244.19;3551722;40;20045;-67
2024/01/30 05:18:59;;;;;;;6.97;5.28;;;;;;;9.95;82.79;102242.53;3547560;40;20425;-67
2024/01/30 05:21:25;;;;;;;6.50;4.82;;;;;;;9.92;83.13;102237.25;3538114;40;20050;-67
2024/01/30 05:23:51;;;;;;;5.28;4.55;;;;;;;9.84;83.12;102223.25;3543873;40;20135;-67
2024/01/30 05:26:17;;;;;;;8.07;5.00;;;;;;;9.94;83.31;102240.78;3539723;40;20047;-67
2024/01/30 05:28:46;;;;;;;7.40;4.95;;;;;;;9.90;83.46;102233.78;3543356;40;20042;-67
2024/01/30 05:31:12;;;;;;;5.57;4.88;;;;;;;9.90;83.47;102223.03;3544054;40;20480;-67
2024/01/30 05:33:37;;;;;;;6.85;4.97;;;;;;;9.97;83.39;102240.66;3543846;40;20054;-67
2024/01/30 05:36:04;;;;;;;7.07;5.38;;;;;;;9.98;83.74;102237.03;3542642;40;20050;-67
2024/01/30 05:38:30;;;;;;;6.88;5.00;;;;;;;9.98;83.39;102241.53;3546710;40;20125;-67
2024/01/30 05:40:57;;;;;;;6.03;5.20;;;;;;;9.98;83.60;102239.72;3538261;40;20065;-67
2024/01/30 05:43:23;;;;;;;7.85;4.97;;;;;;;9.99;83.91;102238.81;3538621;40;20059;-69
2024/01/30 05:45:49;;;;;;;6.90;4.60;;;;;;;10.01;84.02;102233.38;3538624;40;20272;-67
2024/01/30 05:48:15;;;;;;;6.47;5.38;;;;;;;10.01;84.10;102233.38;3539775;40;20104;-67
2024/01/30 05:50:40;;;;;;;7.75;5.07;;;;;;;10.04;84.16;102254.75;3542550;40;20146;-67
2024/01/30 05:53:06;;;;;;;6.65;5.40;;;;;;;10.05;83.95;102235.00;3537946;40;20062;-67
2024/01/30 05:55:31;;;;;;;6.03;5.40;;;;;;;9.92;83.98;102221.13;3539376;40;20085;-67
2024/01/30 05:57:57;;;;;;;7.13;4.47;;;;;;;9.90;83.97;102214.97;3543027;40;20074;-67
2024/01/30 06:00:23;;;;;;;6.20;4.95;;;;;;;10.09;84.13;102241.16;3538900;40;20098;-67
2024/01/30 06:02:48;;;;;;;7.00;5.18;;;;;;;10.12;83.76;102249.09;3547670;40;20062;-68
2024/01/30 06:05:14;;;;;;;7.20;4.93;;;;;;;10.11;83.91;102236.59;3545788;40;21115;-68
2024/01/30 06:07:39;;;;;;;8.82;4.80;;;;;;;10.16;83.50;102237.31;3544325;40;20045;-68
2024/01/30 06:10:06;;;;;;;5.78;4.70;;;;;;;10.16;84.33;102234.63;3543751;40;20053;-68
2024/01/30 06:12:32;;;;;;;7.70;5.22;;;;;;;10.19;83.88;102242.56;3544249;40;20133;-68
2024/01/30 06:14:58;;;;;;;9.48;5.40;;;;;;;10.20;83.39;102241.63;3543006;40;20061;-68
2024/01/30 06:17:23;;;;;;;8.23;4.95;;;;;;;10.12;83.94;102224.94;3544059;40;20406;-68
2024/01/30 06:19:49;;;;;;;7.85;4.90;;;;;;;10.23;83.87;102247.75;3541828;40;20053;-68
2024/01/30 06:22:16;;;;;;;8.15;4.85;;;;;;;10.25;84.24;102253.09;3545332;40;20092;-68
2024/01/30 06:24:44;;;;;;;8.38;5.50;;;;;;;10.23;83.94;102237.00;3545139;40;20042;-69
2024/01/30 06:27:10;;;;;;;11.15;5.45;;;;;;;10.29;83.54;102252.06;3544499;40;20046;-68
2024/01/30 06:29:36;;;;;;;6.57;5.32;;;;;;;10.30;84.07;102253.81;3546502;40;20065;-67
2024/01/30 06:32:01;;;;;;;5.97;5.20;;;;;;;10.30;83.44;102259.19;3544787;40;20064;-67
2024/01/30 06:34:27;;;;;;;7.60;4.97;;;;;;;10.33;83.12;102258.19;3547293;40;20065;-67
2024/01/30 06:36:52;;;;;;;7.93;5.45;;;;;;;10.34;83.51;102260.84;3544379;40;20054;-67
2024/01/30 06:39:18;;;;;;;7.38;5.25;;;;;;;10.32;83.50;102268.06;3544773;40;20069;-67
2024/01/30 06:41:46;;;;;;;6.63;5.03;;;;;;;10.21;83.95;102240.69;3545488;40;20054;-67
2024/01/30 06:44:12;;;;;;;7.20;5.07;;;;;;;10.33;83.50;102264.44;3546749;40;20064;-68
2024/01/30 06:46:38;;;;;;;6.65;4.97;;;;;;;10.33;84.06;102269.81;3544937;40;20064;-68
2024/01/30 06:49:04;;;;;;;7.20;4.93;;;;;;;10.36;83.92;102258.06;3544042;40;20062;-68
2024/01/30 06:51:30;;;;;;;6.30;5.20;;;;;;;10.36;84.12;102258.94;3546437;40;20061;-68
2024/01/30 06:53:56;;;;;;;7.43;5.35;;;;;;;9.63;83.55;102138.09;3544060;40;20252;-67
2024/01/30 06:56:21;;;;;;;9.63;5.20;;;;;;;10.36;84.03;102269.69;3543412;40;20336;-68
2024/01/30 06:58:48;;;;;;;8.88;5.30;;;;;;;10.33;83.96;102280.56;3542789;40;20088;-68
2024/01/30 07:01:15;;;;;;;7.47;5.28;;;;;;;10.22;84.31;102272.88;3535924;40;20059;-67
2024/01/30 07:03:42;;;;;;;6.97;5.13;;;;;;;10.35;84.97;102294.84;3544666;40;20479;-67
2024/01/30 07:06:08;;;;;;;9.15;5.38;;;;;;;10.21;84.46;102260.38;3542459;40;20064;-67
2024/01/30 07:08:34;;;;;;;7.97;5.43;;;;;;;10.25;83.77;102262.97;3543745;40;20050;-66
2024/01/30 07:10:59;;;;;;;6.45;5.13;;;;;;;10.42;84.30;102298.16;3547453;40;20076;-66
2024/01/30 07:13:25;;;;;;;8.13;5.18;;;;;;;10.45;83.73;102304.31;3545391;40;20054;-66
2024/01/30 07:15:51;;;;;;;8.82;5.30;;;;;;;10.49;83.96;102306.88;3550633;40;20072;-66
2024/01/30 07:18:16;;;;;;;7.07;4.88;;;;;;;10.51;84.31;102308.56;3546196;40;20359;-67
2024/01/30 07:20:49;;;;;;;7.55;5.15;;;;;;;10.53;84.12;102309.41;3545434;40;20049;-67
2024/01/30 07:23:17;;;;;;;8.00;5.43;;;;;;;10.55;83.50;102309.34;3546173;40;21400;-67
2024/01/30 07:25:48;;;;;;;7.43;5.28;;;;;;;10.57;83.60;102315.53;3546553;40;20119;-67
2024/01/30 07:28:18;;;;;;;9.48;5.55;;;;;;;10.56;84.19;102324.53;3545171;40;20066;-67
2024/01/30 07:30:43;;;;;;;5.50;5.00;;;;;;;10.30;84.03;102263.69;3548218;40;20275;-67
2024/01/30 07:33:09;;;;;;;6.55;5.55;;;;;;;10.62;83.82;102321.59;3546759;40;20061;-67
2024/01/30 07:35:36;;;;;;;6.45;5.68;;;;;;;10.64;83.92;102322.44;3544971;40;20295;-67
2024/01/30 07:38:01;;;;;;;8.07;5.30;;;;;;;10.67;84.05;102327.69;3539017;40;20046;-67
2024/01/30 07:40:27;;;;;;;8.02;6.00;;;;;;;10.69;83.82;102320.47;3542394;40;20064;-67
2024/01/30 07:42:56;;;;;;;7.15;5.72;;;;;;;10.71;82.73;102329.31;3547129;40;20259;-67
2024/01/30 07:45:22;;;;;;;9.10;6.28;;;;;;;10.72;83.27;102330.19;3548496;40;20057;-67
2024/01/30 07:47:49;;;;;;;9.73;6.75;;;;;;;10.75;83.77;102325.59;3545088;40;20056;-67
2024/01/30 07:50:15;;;;;;;7.57;6.40;;;;;;;10.75;83.24;102320.22;3545544;40;20078;-67
2024/01/30 07:52:41;;;;;;;9.50;6.03;;;;;;;10.78;82.89;102330.84;3543381;40;20154;-67
2024/01/30 07:55:08;;;;;;;8.60;5.65;;;;;;;10.81;83.08;102330.72;3543907;40;20070;-67
2024/01/30 07:57:34;;;;;;;10.13;6.07;;;;;;;10.83;83.24;102333.38;3545638;40;20094;-67
2024/01/30 08:00:00;;;;;;;7.13;5.70;;;;;;;10.69;83.33;102315.09;3543923;40;20066;-67
2024/01/30 08:02:26;;;;;;;8.18;5.80;;;;;;;10.86;83.48;102349.38;3544194;40;20066;-67
2024/01/30 08:04:51;;;;;;;9.13;5.97;;;;;;;10.87;82.71;102346.63;3548088;40;20312;-67
2024/01/30 08:07:17;;;;;;;7.65;5.70;;;;;;;10.87;83.49;102352.00;3546760;40;20063;-67
2024/01/30 08:09:44;;;;;;;6.47;5.70;;;;;;;10.77;83.36;102323.72;3549230;40;20054;-67
2024/01/30 08:12:09;;;;;;;8.15;5.97;;;;;;;10.92;83.12;102358.09;3545842;40;20123;-67
2024/01/30 08:14:35;;;;;;;6.88;5.38;;;;;;;10.93;82.93;102349.06;3544603;40;20336;-68
2024/01/30 08:17:00;;;;;;;10.23;6.03;;;;;;;10.95;83.44;102348.16;3542555;40;20049;-67
2024/01/30 08:19:26;;;;;;;7.85;5.53;;;;;;;10.91;83.40;102342.03;3545178;40;20046;-67
2024/01/30 08:21:51;;;;;;;7.47;5.80;;;;;;;10.99;83.06;102352.47;3544970;40;20128;-67
2024/01/30 08:24:17;;;;;;;7.47;5.32;;;;;;;11.05;83.11;102354.94;3540011;40;20076;-67
2024/01/30 08:26:43;;;;;;;7.95;5.38;;;;;;;11.07;82.56;102353.06;3544065;40;20064;-67
2024/01/30 08:29:08;;;;;;;7.90;5.50;;;;;;;10.84;82.77;102308.22;3543827;40;20053;-67
2024/01/30 08:31:34;;;;;;;9.40;5.57;;;;;;;11.14;82.38;102347.38;3542550;40;20065;-67
2024/01/30 08:33:59;;;;;;;5.78;5.10;;;;;;;11.20;82.20;102351.63;3542164;40;20054;-66
2024/01/30 08:36:25;;;;;;;7.20;5.18;;;;;;;11.24;82.14;102350.56;3541152;40;20058;-67
2024/01/30 08:38:51;;;;;;;7.55;5.55;;;;;;;11.28;82.30;102341.41;3542147;40;20066;-66
2024/01/30 08:41:16;;;;;;;8.13;5.65;;;;;;;11.32;82.31;102353.84;3539183;40;20135;-68
2024/01/30 08:43:42;;;;;;;7.55;5.13;;;;;;;11.37;82.13;102357.19;3542518;40;20066;-66
2024/01/30 08:46:08;;;;;;;10.40;5.03;;;;;;;11.36;82.15;102349.19;3541941;40;20168;-67
2024/01/30 08:48:33;;;;;;;8.60;5.25;;;;;;;11.44;81.89;102347.06;3541703;40;20070;-67
2024/01/30 08:50:59;;;;;;;7.15;5.10;;;;;;;11.48;81.73;102354.09;3542414;40;20089;-66
2024/01/30 08:53:24;;;;;;;8.57;5.30;;;;;;;11.53;82.00;102359.28;3540619;40;20066;-67
2024/01/30 08:55:50;;;;;;;7.90;5.40;;;;;;;11.58;82.00;102351.88;3540622;40;20069;-66
2024/01/30 08:58:18;;;;;;;6.35;4.93;;;;;;;11.59;81.75;102350.94;3539191;40;20050;-67
2024/01/30 09:00:43;;;;;;;8.32;5.60;;;;;;;11.64;82.03;102348.94;3542767;40;20124;-67
2024/01/30 09:03:09;;;;;;;7.13;5.45;;;;;;;11.69;81.33;102351.44;3541869;40;20049;-66
2024/01/30 09:05:34;;;;;;;8.02;5.45;;;;;;;11.73;81.88;102358.44;3544138;40;20046;-67
2024/01/30 09:08:00;;;;;;;8.25;5.20;;;;;;;11.77;81.59;102360.06;3544823;40;20314;-69
2024/01/30 09:10:26;;;;;;;7.50;5.15;;;;;;;11.82;81.08;102358.91;3545117;40;20050;-67
2024/01/30 09:12:52;;;;;;;7.28;5.50;;;;;;;11.71;81.24;102342.34;3543706;40;20128;-67
2024/01/30 09:15:18;;;;;;;8.15;5.35;;;;;;;11.89;81.10;102358.69;3539471;40;20389;-66
2024/01/30 09:17:44;;;;;;;9.85;5.53;;;;;;;11.92;81.08;102356.72;3541660;40;20381;-67
2024/01/30 09:20:11;;;;;;;8.05;5.00;;;;;;;11.93;80.69;102361.22;3540649;40;20054;-67
2024/01/30 09:22:36;;;;;;;10.73;6.03;;;;;;;11.98;80.60;102369.06;3541973;40;20411;-67
2024/01/30 09:25:02;;;;;;;7.55;5.50;;;;;;;12.01;80.64;102363.56;3541728;40;20069;-67
2024/01/30 09:27:28;;;;;;;7.32;5.28;;;;;;;12.03;80.90;102372.47;3544322;40;20101;-67
2024/01/30 09:29:53;;;;;;;10.38;5.72;;;;;;;12.07;80.77;102369.56;3546625;40;20064;-68
2024/01/30 09:32:19;;;;;;;8.45;5.53;;;;;;;12.12;80.72;102374.75;3541315;40;20096;-67
2024/01/30 09:34:44;;;;;;;8.50;5.15;;;;;;;12.16;80.41;102368.28;3546879;40;20050;-67
2024/01/30 09:37:10;;;;;;;7.22;5.78;;;;;;;12.21;80.75;102376.16;3543849;40;20093;-67
2024/01/30 09:39:35;;;;;;;9.05;4.97;;;;;;;12.24;80.06;102376.94;3544440;40;20070;-67
2024/01/30 09:42:40;;;;;;;8.50;5.20;;;;;;;12.29;79.91;102382.97;3542642;40;20065;-67
2024/01/30 09:45:05;;;;;;;;;;;;;;;12.33;80.26;102397.19;3541348;40;20054;-67
2024/01/30 09:47:43;;;;;;;10.30;5.35;;;;;;;12.35;79.78;102399.84;3545584;40;19985;-67
2024/01/30 09:50:11;;;;;;;9.93;5.53;;;;;;;12.39;79.99;102396.94;3541132;40;20049;-67
2024/01/30 09:52:37;;;;;;;8.15;4.53;;;;;;;12.30;79.76;102376.66;3542612;40;20303;-67
2024/01/30 09:55:05;;;;;;;9.75;5.60;;;;;;;12.46;79.50;102397.53;3541872;40;20295;-67
2024/01/30 09:57:31;;;;;;;11.70;5.28;;;;;;;12.39;79.67;102386.13;3542853;40;20041;-67
2024/01/30 09:59:56;;;;;;;9.00;5.20;;;;;;;12.50;79.74;102399.16;3546197;40;20424;-67
2024/01/30 10:02:23;;;;;;;9.38;5.28;;;;;;;12.38;79.27;102376.31;3545599;40;20062;-67
2024/01/30 10:04:50;;;;;;;9.82;5.60;;;;;;;12.36;79.25;102355.75;3544124;40;20042;-67
2024/01/30 10:07:18;;;;;;;9.05;5.35;;;;;;;12.55;78.91;102399.81;3542493;40;20058;-68
2024/01/30 10:09:44;;;;;;;9.23;5.68;;;;;;;12.18;79.04;102328.66;3543397;40;20155;-67
2024/01/30 10:12:10;;;;;;;9.63;5.55;;;;;;;12.54;79.43;102398.06;3542386;40;20053;-67
2024/01/30 10:14:39;;;;;;;10.35;5.78;;;;;;;12.53;79.40;102394.50;3542454;40;20128;-68
2024/01/30 10:17:07;;;;;;;9.88;5.85;;;;;;;12.55;79.20;102407.91;3541907;40;20431;-67
2024/01/30 10:19:32;;;;;;;8.80;5.78;;;;;;;12.56;79.36;102415.06;3541620;40;20128;-67
2024/01/30 10:22:00;;;;;;;9.13;5.43;;;;;;;12.55;79.65;102407.91;3543521;40;20051;-69
2024/01/30 10:24:26;;;;;;;8.68;5.95;;;;;;;12.46;79.63;102381.34;3542895;40;20366;-67
2024/01/30 10:26:53;;;;;;;10.15;5.75;;;;;;;12.62;79.88;102416.59;3541880;40;20056;-68
2024/01/30 10:29:19;;;;;;;10.65;6.32;;;;;;;12.65;79.98;102420.03;3540928;40;20112;-67
2024/01/30 10:31:44;;;;;;;10.80;5.88;;;;;;;12.58;79.50;102405.06;3543567;40;20307;-68
2024/01/30 10:34:10;;;;;;;12.32;6.15;;;;;;;12.55;79.32;102386.31;3541265;40;20388;-67
2024/01/30 10:36:43;;;;;;;11.02;5.85;;;;;;;12.76;79.22;102427.66;3543215;40;20057;-67
2024/01/30 10:39:10;;;;;;;8.18;5.40;;;;;;;12.61;78.95;102393.28;3543290;40;20101;-67
2024/01/30 10:41:44;;;;;;;6.53;5.70;;;;;;;12.84;78.89;102424.59;3542103;40;20128;-67
2024/01/30 10:44:11;;;;;;;10.05;6.22;;;;;;;12.82;79.03;102410.31;3540433;40;20081;-67
2024/01/30 10:46:39;;;;;;;12.65;6.15;;;;;;;12.72;79.11;102397.25;3542655;40;20116;-68
2024/01/30 10:49:06;;;;;;;11.77;6.25;;;;;;;12.86;79.55;102423.59;3544166;40;20056;-67
2024/01/30 10:51:34;;;;;;;9.13;5.90;;;;;;;12.91;79.08;102420.69;3545111;40;20115;-67
2024/01/30 10:54:01;;;;;;;10.68;6.30;;;;;;;12.93;79.20;102424.19;3542085;40;20105;-67
2024/01/30 10:56:29;;;;;;;8.65;6.05;;;;;;;12.93;79.25;102421.47;3541987;40;20105;-67
2024/01/30 10:58:55;;;;;;;8.95;6.00;;;;;;;12.93;78.93;102418.78;3541396;40;20054;-67
2024/01/30 11:01:24;;;;;;;11.32;6.70;;;;;;;12.93;79.06;102422.34;3541708;40;20060;-67
2024/01/30 11:03:56;;;;;;;12.95;7.18;;;;;;;12.98;79.27;102432.94;3542307;40;20074;-67
2024/01/30 11:06:30;;;;;;;9.63;6.55;;;;;;;12.95;79.38;102420.47;3540157;40;20062;-67
2024/01/30 11:09:12;;;;;;;10.50;6.32;;;;;;;12.95;79.26;102423.16;3545165;40;20074;-67
2024/01/30 11:12:01;;;;;;;11.55;6.72;;;;;;;12.95;79.10;102435.78;3542918;40;20386;-67
2024/01/30 11:14:30;;;;;;;9.63;6.65;;;;;;;12.93;79.46;102432.28;3541002;40;20066;-67
2024/01/30 11:16:59;;;;;;;9.20;6.40;;;;;;;12.86;79.84;102426.28;3546598;40;20053;-68
2024/01/30 11:19:26;;;;;;;11.38;7.00;;;;;;;12.89;79.55;102422.56;3541426;40;20379;-67
2024/01/30 11:21:56;;;;;;;12.80;6.78;;;;;;;12.73;79.34;102409.78;3543912;40;20054;-67
2024/01/30 11:24:23;;;;;;;10.20;6.07;;;;;;;12.84;79.37;102421.91;3543916;40;20048;-67
2024/01/30 11:26:55;;;;;;;9.75;6.35;;;;;;;12.87;79.22;102432.56;3544315;40;20054;-67